Wetterdaten: aktuell Freitag, 18.01.2019 09:04
Datum Zeit Temp. 2m Luftf.2m Luftdruck Regen Wind Richtung Richtung Taupunkt Windchill
18.01.2019 09:04 -1,8 C 92 % 1015,5 hPa 0,0 l/m 30,6 km/h (5 Bft) NO 44 -2,9 C -16,1 C
18.01.2019 09:03 -1,8 C 92 % 1015,7 hPa 0,0 l/m 22,6 km/h (4 Bft) NO 44 -2,9 C -13,2 C
18.01.2019 09:02 -1,8 C 92 % 1015,6 hPa 0,0 l/m 17,8 km/h (3 Bft) NO 44 -2,9 C -10,8 C
18.01.2019 09:01 -1,9 C 92 % 1015,7 hPa 0,0 l/m 35,4 km/h (5 Bft) NO 44 -3,0 C -17,6 C
18.01.2019 09:00 -1,8 C 92 % 1015,6 hPa 0,0 l/m 24,1 km/h (4 Bft) NO 44 -2,9 C -13,8 C
18.01.2019 08:59 -1,8 C 92 % 1015,6 hPa 0,0 l/m 33,7 km/h (5 Bft) NO 44 -2,9 C -17,0 C
18.01.2019 08:58 -1,8 C 92 % 1015,5 hPa 0,0 l/m 22,6 km/h (4 Bft) NO 44 -2,9 C -13,2 C
18.01.2019 08:57 -1,8 C 92 % 1015,5 hPa 0,0 l/m 38,7 km/h (5 Bft) NO 44 -2,9 C -18,3 C
18.01.2019 08:56 -1,8 C 92 % 1015,6 hPa 0,0 l/m 27,4 km/h (4 Bft) NO 44 -2,9 C -15,1 C
18.01.2019 08:55 -1,8 C 92 % 1015,4 hPa 0,0 l/m 41,9 km/h (6 Bft) NO 44 -2,9 C -19,0 C
18.01.2019 08:54 -1,8 C 92 % 1015,6 hPa 0,0 l/m 37,0 km/h (5 Bft) NO 44 -2,9 C -17,9 C
18.01.2019 08:53 -1,8 C 92 % 1015,5 hPa 0,0 l/m 27,4 km/h (4 Bft) NO 44 -2,9 C -15,1 C
18.01.2019 08:52 -1,8 C 92 % 1015,5 hPa 0,0 l/m 25,7 km/h (4 Bft) NO 44 -2,9 C -14,4 C
18.01.2019 08:51 -1,8 C 92 % 1015,5 hPa 0,0 l/m 27,4 km/h (4 Bft) NO 44 -2,9 C -15,1 C
18.01.2019 08:50 -1,8 C 93 % 1015,4 hPa 0,0 l/m 27,4 km/h (4 Bft) NO 44 -2,8 C -15,1 C
18.01.2019 08:49 -1,8 C 93 % 1015,3 hPa 0,0 l/m 30,6 km/h (5 Bft) NO 44 -2,8 C -16,1 C
18.01.2019 08:48 -1,8 C 93 % 1015,3 hPa 0,0 l/m 33,7 km/h (5 Bft) NO 44 -2,8 C -17,0 C
18.01.2019 08:47 -1,8 C 93 % 1015,4 hPa 0,0 l/m 27,4 km/h (4 Bft) NO 44 -2,8 C -15,1 C
18.01.2019 08:46 -1,8 C 93 % 1015,4 hPa 0,0 l/m 33,7 km/h (5 Bft) NO 44 -2,8 C -17,0 C
18.01.2019 08:45 -1,8 C 93 % 1015,3 hPa 0,0 l/m 32,2 km/h (5 Bft) NO 44 -2,8 C -16,6 C
18.01.2019 08:44 -1,8 C 93 % 1015,4 hPa 0,0 l/m 32,2 km/h (5 Bft) NO 44 -2,8 C -16,6 C
18.01.2019 08:43 -1,8 C 93 % 1015,2 hPa 0,0 l/m 27,4 km/h (4 Bft) NO 44 -2,8 C -15,1 C
18.01.2019 08:42 -1,8 C 93 % 1015,2 hPa 0,0 l/m 28,9 km/h (5 Bft) NO 44 -2,8 C -15,6 C
18.01.2019 08:41 -1,8 C 93 % 1015,2 hPa 0,0 l/m 30,6 km/h (5 Bft) NO 44 -2,8 C -16,1 C
18.01.2019 08:40 -1,8 C 93 % 1015,3 hPa 0,0 l/m 37,0 km/h (5 Bft) NO 44 -2,8 C -17,9 C
18.01.2019 08:39 -1,8 C 93 % 1015,2 hPa 0,0 l/m 28,9 km/h (5 Bft) NO 44 -2,8 C -15,6 C
18.01.2019 08:38 -1,9 C 93 % 1015,1 hPa 0,0 l/m 33,7 km/h (5 Bft) NO 44 -2,9 C -17,2 C
18.01.2019 08:37 -1,9 C 93 % 1015,1 hPa 0,0 l/m 25,7 km/h (4 Bft) NO 44 -2,9 C -14,6 C
18.01.2019 08:36 -1,9 C 93 % 1015,1 hPa 0,0 l/m 32,2 km/h (5 Bft) NO 44 -2,9 C -16,8 C
18.01.2019 08:35 -1,9 C 93 % 1015,1 hPa 0,0 l/m 24,1 km/h (4 Bft) NO 44 -2,9 C -13,9 C
18.01.2019 08:34 -1,9 C 94 % 1015,2 hPa 0,0 l/m 37,0 km/h (5 Bft) NO 44 -2,7 C -18,1 C
18.01.2019 08:33 -1,9 C 94 % 1015,1 hPa 0,0 l/m 30,6 km/h (5 Bft) NO 44 -2,7 C -16,3 C
18.01.2019 08:32 -1,9 C 94 % 1015,1 hPa 0,0 l/m 38,7 km/h (5 Bft) NO 44 -2,7 C -18,5 C
18.01.2019 08:31 -1,9 C 94 % 1015,1 hPa 0,0 l/m 30,6 km/h (5 Bft) NO 44 -2,7 C -16,3 C
18.01.2019 08:30 -1,9 C 94 % 1015,1 hPa 0,0 l/m 30,6 km/h (5 Bft) NO 44 -2,7 C -16,3 C
18.01.2019 08:29 -2,0 C 94 % 1015,0 hPa 0,0 l/m 30,6 km/h (5 Bft) NO 44 -2,8 C -16,4 C
18.01.2019 08:28 -2,0 C 94 % 1015,0 hPa 0,0 l/m 35,4 km/h (5 Bft) NO 44 -2,8 C -17,8 C
18.01.2019 08:27 -2,0 C 94 % 1014,9 hPa 0,0 l/m 25,7 km/h (4 Bft) NO 44 -2,8 C -14,7 C
18.01.2019 08:26 -2,0 C 94 % 1015,0 hPa 0,0 l/m 27,4 km/h (4 Bft) NO 44 -2,8 C -15,3 C
18.01.2019 08:25 -2,0 C 94 % 1014,9 hPa 0,0 l/m 24,1 km/h (4 Bft) NO 44 -2,8 C -14,1 C
18.01.2019 08:24 -2,0 C 94 % 1014,9 hPa 0,0 l/m 28,9 km/h (5 Bft) NO 44 -2,8 C -15,9 C
18.01.2019 08:23 -2,0 C 94 % 1014,9 hPa 0,0 l/m 28,9 km/h (5 Bft) NO 44 -2,8 C -15,9 C
18.01.2019 08:22 -2,0 C 94 % 1014,8 hPa 0,0 l/m 33,7 km/h (5 Bft) NO 44 -2,8 C -17,3 C
18.01.2019 08:21 -2,0 C 94 % 1014,8 hPa 0,0 l/m 28,9 km/h (5 Bft) NO 44 -2,8 C -15,9 C
18.01.2019 08:20 -2,1 C 94 % 1014,7 hPa 0,0 l/m 32,2 km/h (5 Bft) NO 44 -2,9 C -17,0 C
18.01.2019 08:19 -2,0 C 94 % 1015,0 hPa 0,0 l/m 22,6 km/h (4 Bft) NO 44 -2,8 C -13,4 C
18.01.2019 08:18 -2,0 C 94 % 1015,0 hPa 0,0 l/m 35,4 km/h (5 Bft) NO 44 -2,8 C -17,8 C
18.01.2019 08:17 -2,0 C 94 % 1015,0 hPa 0,0 l/m 24,1 km/h (4 Bft) NO 44 -2,8 C -14,1 C
18.01.2019 08:16 -2,0 C 94 % 1014,9 hPa 0,0 l/m 27,4 km/h (4 Bft) NO 44 -2,8 C -15,3 C
18.01.2019 08:15 -2,0 C 94 % 1014,8 hPa 0,0 l/m 32,2 km/h (5 Bft) NO 44 -2,8 C -16,9 C
18.01.2019 08:14 -2,1 C 94 % 1014,9 hPa 0,0 l/m 22,6 km/h (4 Bft) NO 44 -2,9 C -13,6 C
18.01.2019 08:13 -2,1 C 94 % 1014,7 hPa 0,0 l/m 22,6 km/h (4 Bft) NO 44 -2,9 C -13,6 C
18.01.2019 08:12 -2,1 C 95 % 1014,8 hPa 0,0 l/m 27,4 km/h (4 Bft) NO 44 -2,8 C -15,5 C
18.01.2019 08:11 -2,1 C 95 % 1014,7 hPa 0,0 l/m 28,9 km/h (5 Bft) NO 44 -2,8 C -16,0 C
18.01.2019 08:10 -2,1 C 95 % 1014,8 hPa 0,0 l/m 30,6 km/h (5 Bft) NO 44 -2,8 C -16,6 C
18.01.2019 08:09 -2,1 C 95 % 1014,6 hPa 0,0 l/m 30,6 km/h (5 Bft) NO 44 -2,8 C -16,6 C
18.01.2019 08:08 -2,1 C 94 % 1014,5 hPa 0,0 l/m 19,3 km/h (3 Bft) NO 44 -2,9 C -12,0 C
18.01.2019 08:07 -2,1 C 94 % 1014,7 hPa 0,0 l/m 27,4 km/h (4 Bft) NO 44 -2,9 C -15,5 C
18.01.2019 08:06 -2,1 C 94 % 1014,7 hPa 0,0 l/m 30,6 km/h (5 Bft) NO 44 -2,9 C -16,6 C
18.01.2019 08:05 -2,1 C 94 % 1014,6 hPa 0,0 l/m 35,4 km/h (5 Bft) NO 44 -2,9 C -17,9 C
18.01.2019 08:04 -2,0 C 94 % 1014,5 hPa 0,0 l/m 24,1 km/h (4 Bft) NO 44 -2,8 C -14,1 C
18.01.2019 08:03 -2,0 C 94 % 1014,6 hPa 0,0 l/m 38,7 km/h (5 Bft) NO 44 -2,8 C -18,6 C
18.01.2019 08:02 -2,0 C 94 % 1014,5 hPa 0,0 l/m 35,4 km/h (5 Bft) NO 44 -2,8 C -17,8 C
18.01.2019 08:01 -1,9 C 94 % 1014,4 hPa 0,0 l/m 28,9 km/h (5 Bft) NO 44 -2,7 C -15,7 C
18.01.2019 08:00 -1,9 C 93 % 1014,5 hPa 0,0 l/m 35,4 km/h (5 Bft) NO 44 -2,9 C -17,6 C
18.01.2019 07:59 -1,8 C 93 % 1014,4 hPa 0,0 l/m 33,7 km/h (5 Bft) NO 44 -2,8 C -17,0 C
18.01.2019 07:58 -1,9 C 94 % 1014,5 hPa 0,0 l/m 46,7 km/h (6 Bft) NO 44 -2,7 C -20,1 C
18.01.2019 07:57 -1,9 C 94 % 1014,3 hPa 0,0 l/m 27,4 km/h (4 Bft) NO 44 -2,7 C -15,2 C
18.01.2019 07:56 -1,9 C 94 % 1014,3 hPa 0,0 l/m 30,6 km/h (5 Bft) NO 44 -2,7 C -16,3 C
18.01.2019 07:55 -1,9 C 94 % 1014,2 hPa 0,0 l/m 35,4 km/h (5 Bft) NO 44 -2,7 C -17,6 C
18.01.2019 07:53 -2,0 C 95 % 1014,3 hPa 0,0 l/m 30,6 km/h (5 Bft) NO 44 -2,7 C -16,4 C
18.01.2019 07:52 -2,0 C 95 % 1014,3 hPa 0,0 l/m 32,2 km/h (5 Bft) NO 44 -2,7 C -16,9 C
18.01.2019 07:51 -2,0 C 95 % 1014,3 hPa 0,0 l/m 19,3 km/h (3 Bft) NO 44 -2,7 C -11,9 C
18.01.2019 07:50 -2,0 C 95 % 1014,3 hPa 0,0 l/m 24,1 km/h (4 Bft) NO 44 -2,7 C -14,1 C
18.01.2019 07:49 -2,0 C 95 % 1014,2 hPa 0,0 l/m 24,1 km/h (4 Bft) NO 44 -2,7 C -14,1 C
18.01.2019 07:48 -2,0 C 94 % 1014,1 hPa 0,0 l/m 30,6 km/h (5 Bft) NO 44 -2,8 C -16,4 C
18.01.2019 07:47 -2,0 C 95 % 1014,3 hPa 0,0 l/m 32,2 km/h (5 Bft) NO 44 -2,7 C -16,9 C
18.01.2019 07:46 -2,0 C 94 % 1014,1 hPa 0,0 l/m 25,7 km/h (4 Bft) NO 44 -2,8 C -14,7 C
18.01.2019 07:45 -2,0 C 94 % 1014,1 hPa 0,0 l/m 25,7 km/h (4 Bft) NO 44 -2,8 C -14,7 C
18.01.2019 07:44 -1,9 C 94 % 1014,1 hPa 0,0 l/m 17,8 km/h (3 Bft) NO 44 -2,7 C -10,9 C
18.01.2019 07:43 -1,8 C 94 % 1014,0 hPa 0,0 l/m 24,1 km/h (4 Bft) NO 44 -2,6 C -13,8 C
18.01.2019 07:42 -1,8 C 94 % 1014,1 hPa 0,0 l/m 24,1 km/h (4 Bft) NO 44 -2,6 C -13,8 C
18.01.2019 07:41 -1,8 C 93 % 1014,1 hPa 0,0 l/m 24,1 km/h (4 Bft) NO 44 -2,8 C -13,8 C
18.01.2019 07:40 -1,7 C 93 % 1014,2 hPa 0,0 l/m 16,1 km/h (3 Bft) NO 44 -2,7 C -9,7 C
18.01.2019 07:39 -1,7 C 93 % 1014,1 hPa 0,0 l/m 19,3 km/h (3 Bft) NO 44 -2,7 C -11,5 C
18.01.2019 07:38 -1,7 C 93 % 1014,1 hPa 0,0 l/m 13,0 km/h (3 Bft) NO 44 -2,7 C -7,7 C
18.01.2019 07:37 -1,7 C 93 % 1014,1 hPa 0,0 l/m 8,0 km/h (2 Bft) NO 44 -2,7 C -3,4 C
18.01.2019 07:36 -1,7 C 93 % 1014,1 hPa 0,0 l/m 9,6 km/h (2 Bft) NO 44 -2,7 C -5,0 C
18.01.2019 07:35 -1,7 C 93 % 1014,0 hPa 0,0 l/m 9,6 km/h (2 Bft) NO 44 -2,7 C -5,0 C
18.01.2019 07:34 -1,7 C 93 % 1014,1 hPa 0,0 l/m 9,6 km/h (2 Bft) NO 44 -2,7 C -5,0 C
18.01.2019 07:33 -1,7 C 93 % 1014,0 hPa 0,0 l/m 16,1 km/h (3 Bft) NO 44 -2,7 C -9,7 C
18.01.2019 07:32 -1,7 C 93 % 1013,9 hPa 0,0 l/m 9,6 km/h (2 Bft) NO 44 -2,7 C -5,0 C
18.01.2019 07:31 -1,7 C 93 % 1013,9 hPa 0,0 l/m 22,6 km/h (4 Bft) NO 44 -2,7 C -13,0 C
18.01.2019 07:30 -1,7 C 93 % 1013,8 hPa 0,0 l/m 22,6 km/h (4 Bft) NO 44 -2,7 C -13,0 C
18.01.2019 07:29 -1,7 C 93 % 1013,9 hPa 0,0 l/m 17,8 km/h (3 Bft) NO 44 -2,7 C -10,7 C
18.01.2019 07:28 -1,7 C 93 % 1013,9 hPa 0,0 l/m 19,3 km/h (3 Bft) NO 44 -2,7 C -11,5 C
18.01.2019 07:27 -1,7 C 93 % 1013,8 hPa 0,0 l/m 13,0 km/h (3 Bft) NO 44 -2,7 C -7,7 C
18.01.2019 07:26 -1,7 C 93 % 1013,8 hPa 0,0 l/m 20,9 km/h (4 Bft) NO 44 -2,7 C -12,3 C
18.01.2019 07:25 -1,7 C 92 % 1013,7 hPa 0,0 l/m 27,4 km/h (4 Bft) NO 44 -2,8 C -14,9 C
18.01.2019 07:24 -1,7 C 92 % 1013,8 hPa 0,0 l/m 24,1 km/h (4 Bft) NO 44 -2,8 C -13,7 C
18.01.2019 07:23 -1,7 C 92 % 1013,7 hPa 0,0 l/m 28,9 km/h (5 Bft) NO 44 -2,8 C -15,4 C
18.01.2019 07:22 -1,7 C 92 % 1013,7 hPa 0,0 l/m 32,2 km/h (5 Bft) NO 44 -2,8 C -16,5 C
18.01.2019 07:21 -1,7 C 92 % 1013,8 hPa 0,0 l/m 28,9 km/h (5 Bft) NO 44 -2,8 C -15,4 C
18.01.2019 07:20 -1,7 C 91 % 1013,7 hPa 0,0 l/m 25,7 km/h (4 Bft) NO 44 -3,0 C -14,3 C
18.01.2019 07:19 -1,6 C 91 % 1013,8 hPa 0,0 l/m 24,1 km/h (4 Bft) NO 44 -2,9 C -13,5 C
18.01.2019 07:18 -1,6 C 91 % 1013,7 hPa 0,0 l/m 17,8 km/h (3 Bft) NO 44 -2,9 C -10,6 C
18.01.2019 07:17 -1,6 C 91 % 1013,8 hPa 0,0 l/m 17,8 km/h (3 Bft) NO 44 -2,9 C -10,6 C
18.01.2019 07:16 -1,6 C 90 % 1013,8 hPa 0,0 l/m 19,3 km/h (3 Bft) NO 44 -3,0 C -11,4 C
18.01.2019 07:15 -1,6 C 90 % 1013,7 hPa 0,0 l/m 19,3 km/h (3 Bft) NO 44 -3,0 C -11,4 C
18.01.2019 07:14 -1,6 C 90 % 1013,8 hPa 0,0 l/m 17,8 km/h (3 Bft) NO 44 -3,0 C -10,6 C
18.01.2019 07:13 -1,6 C 90 % 1013,7 hPa 0,0 l/m 14,4 km/h (3 Bft) NO 44 -3,0 C -8,5 C
18.01.2019 07:12 -1,6 C 90 % 1013,7 hPa 0,0 l/m 20,9 km/h (4 Bft) NO 44 -3,0 C -12,1 C
18.01.2019 07:11 -1,6 C 90 % 1013,8 hPa 0,0 l/m 19,3 km/h (3 Bft) NO 44 -3,0 C -11,4 C
18.01.2019 07:10 -1,6 C 90 % 1013,6 hPa 0,0 l/m 20,9 km/h (4 Bft) NO 44 -3,0 C -12,1 C
18.01.2019 07:09 -1,6 C 90 % 1013,7 hPa 0,0 l/m 16,1 km/h (3 Bft) NO 44 -3,0 C -9,6 C
18.01.2019 07:08 -1,6 C 90 % 1013,6 hPa 0,0 l/m 14,4 km/h (3 Bft) NO 44 -3,0 C -8,5 C
18.01.2019 07:07 -1,6 C 90 % 1013,6 hPa 0,0 l/m 8,0 km/h (2 Bft) NO 44 -3,0 C -3,3 C
18.01.2019 07:06 -1,6 C 89 % 1013,7 hPa 0,0 l/m 17,8 km/h (3 Bft) NO 44 -3,2 C -10,6 C
18.01.2019 07:05 -1,6 C 89 % 1013,5 hPa 0,0 l/m 14,4 km/h (3 Bft) NO 44 -3,2 C -8,5 C
18.01.2019 07:04 -1,6 C 89 % 1013,5 hPa 0,0 l/m 16,1 km/h (3 Bft) NO 44 -3,2 C -9,6 C
18.01.2019 07:03 -1,6 C 89 % 1013,5 hPa 0,0 l/m 20,9 km/h (4 Bft) NO 44 -3,2 C -12,1 C
18.01.2019 07:02 -1,5 C 89 % 1013,4 hPa 0,0 l/m 13,0 km/h (3 Bft) NO 44 -3,1 C -7,5 C
18.01.2019 07:01 -1,6 C 89 % 1013,4 hPa 0,0 l/m 24,1 km/h (4 Bft) NO 44 -3,2 C -13,5 C
18.01.2019 07:00 -1,6 C 89 % 1013,5 hPa 0,0 l/m 14,4 km/h (3 Bft) NO 44 -3,2 C -8,5 C
18.01.2019 06:59 -1,5 C 89 % 1013,3 hPa 0,0 l/m 16,1 km/h (3 Bft) NO 44 -3,1 C -9,5 C
18.01.2019 06:58 -1,5 C 89 % 1013,2 hPa 0,0 l/m 24,1 km/h (4 Bft) NO 44 -3,1 C -13,4 C
18.01.2019 06:57 -1,5 C 89 % 1013,3 hPa 0,0 l/m 19,3 km/h (3 Bft) NO 44 -3,1 C -11,2 C
18.01.2019 06:56 -1,5 C 89 % 1013,3 hPa 0,0 l/m 17,8 km/h (3 Bft) NO 44 -3,1 C -10,4 C
18.01.2019 06:55 -1,5 C 89 % 1013,3 hPa 0,0 l/m 19,3 km/h (3 Bft) NO 44 -3,1 C -11,2 C
18.01.2019 06:54 -1,5 C 89 % 1013,2 hPa 0,0 l/m 16,1 km/h (3 Bft) NO 44 -3,1 C -9,5 C
18.01.2019 06:53 -1,5 C 88 % 1013,2 hPa 0,0 l/m 14,4 km/h (3 Bft) NO 44 -3,2 C -8,4 C
18.01.2019 06:52 -1,5 C 88 % 1013,2 hPa 0,0 l/m 17,8 km/h (3 Bft) NO 44 -3,2 C -10,4 C
18.01.2019 06:51 -1,5 C 88 % 1013,2 hPa 0,0 l/m 17,8 km/h (3 Bft) NO 44 -3,2 C -10,4 C
18.01.2019 06:50 -1,5 C 88 % 1013,1 hPa 0,0 l/m 8,0 km/h (2 Bft) NO 44 -3,2 C -3,2 C
18.01.2019 06:49 -1,5 C 88 % 1013,0 hPa 0,0 l/m 17,8 km/h (3 Bft) NO 44 -3,2 C -10,4 C
18.01.2019 06:48 -1,5 C 88 % 1013,0 hPa 0,0 l/m 20,9 km/h (4 Bft) NO 44 -3,2 C -12,0 C
18.01.2019 06:47 -1,5 C 88 % 1013,0 hPa 0,0 l/m 19,3 km/h (3 Bft) NO 44 -3,2 C -11,2 C
18.01.2019 06:46 -1,5 C 88 % 1012,9 hPa 0,0 l/m 22,6 km/h (4 Bft) NO 44 -3,2 C -12,8 C
18.01.2019 06:45 -1,5 C 88 % 1013,0 hPa 0,0 l/m 24,1 km/h (4 Bft) NO 44 -3,2 C -13,4 C
18.01.2019 06:44 -1,5 C 88 % 1013,0 hPa 0,0 l/m 17,8 km/h (3 Bft) NO 44 -3,2 C -10,4 C
18.01.2019 06:43 -1,5 C 88 % 1013,0 hPa 0,0 l/m 14,4 km/h (3 Bft) NO 44 -3,2 C -8,4 C
18.01.2019 06:42 -1,5 C 88 % 1012,9 hPa 0,0 l/m 17,8 km/h (3 Bft) NO 44 -3,2 C -10,4 C
18.01.2019 06:41 -1,5 C 88 % 1013,0 hPa 0,0 l/m 17,8 km/h (3 Bft) NO 44 -3,2 C -10,4 C
18.01.2019 06:40 -1,5 C 88 % 1012,9 hPa 0,0 l/m 28,9 km/h (5 Bft) NO 44 -3,2 C -15,2 C
18.01.2019 06:39 -1,5 C 88 % 1012,9 hPa 0,0 l/m 19,3 km/h (3 Bft) NO 44 -3,2 C -11,2 C
18.01.2019 06:38 -1,5 C 88 % 1012,9 hPa 0,0 l/m 22,6 km/h (4 Bft) NO 44 -3,2 C -12,8 C
18.01.2019 06:37 -1,5 C 88 % 1012,8 hPa 0,0 l/m 22,6 km/h (4 Bft) NO 44 -3,2 C -12,8 C
18.01.2019 06:36 -1,5 C 88 % 1012,8 hPa 0,0 l/m 25,7 km/h (4 Bft) NO 44 -3,2 C -14,0 C
18.01.2019 06:35 -1,5 C 88 % 1012,6 hPa 0,0 l/m 9,6 km/h (2 Bft) NO 44 -3,2 C -4,8 C
18.01.2019 06:34 -1,5 C 88 % 1012,7 hPa 0,0 l/m 24,1 km/h (4 Bft) NO 44 -3,2 C -13,4 C
18.01.2019 06:33 -1,5 C 88 % 1012,7 hPa 0,0 l/m 19,3 km/h (3 Bft) NO 44 -3,2 C -11,2 C
18.01.2019 06:32 -1,5 C 87 % 1012,7 hPa 0,0 l/m 16,1 km/h (3 Bft) NO 44 -3,4 C -9,5 C
18.01.2019 06:31 -1,5 C 88 % 1012,7 hPa 0,0 l/m 14,4 km/h (3 Bft) NO 44 -3,2 C -8,4 C
18.01.2019 06:30 -1,4 C 88 % 1012,7 hPa 0,0 l/m 13,0 km/h (3 Bft) NO 44 -3,1 C -7,3 C
18.01.2019 06:29 -1,4 C 87 % 1012,8 hPa 0,0 l/m 6,5 km/h (2 Bft) NO 44 -3,3 C -1,5 C
18.01.2019 06:28 -1,4 C 87 % 1012,8 hPa 0,0 l/m 9,6 km/h (2 Bft) NO 44 -3,3 C -4,6 C
18.01.2019 06:27 -1,4 C 87 % 1012,6 hPa 0,0 l/m 9,6 km/h (2 Bft) NO 44 -3,3 C -4,6 C
18.01.2019 06:26 -1,4 C 87 % 1012,7 hPa 0,0 l/m 30,6 km/h (5 Bft) NO 44 -3,3 C -15,6 C
18.01.2019 06:25 -1,4 C 87 % 1012,8 hPa 0,0 l/m 19,3 km/h (3 Bft) NO 44 -3,3 C -11,1 C
18.01.2019 06:23 -1,3 C 87 % 1012,7 hPa 0,0 l/m 4,8 km/h (1 Bft) NO 44 -3,2 C -1,3 C
18.01.2019 06:22 -1,3 C 87 % 1012,7 hPa 0,0 l/m 17,8 km/h (3 Bft) NO 44 -3,2 C -10,2 C
18.01.2019 06:21 -1,3 C 87 % 1012,7 hPa 0,0 l/m 16,1 km/h (3 Bft) NO 44 -3,2 C -9,2 C
18.01.2019 06:20 -1,3 C 87 % 1012,7 hPa 0,0 l/m 22,6 km/h (4 Bft) NO 44 -3,2 C -12,5 C
18.01.2019 06:19 -1,3 C 87 % 1012,7 hPa 0,0 l/m 6,5 km/h (2 Bft) NO 44 -3,2 C -1,4 C
18.01.2019 06:18 -1,3 C 87 % 1012,5 hPa 0,0 l/m 24,1 km/h (4 Bft) NO 44 -3,2 C -13,1 C
18.01.2019 06:17 -1,3 C 87 % 1012,6 hPa 0,0 l/m 22,6 km/h (4 Bft) NO 44 -3,2 C -12,5 C
18.01.2019 06:16 -1,3 C 87 % 1012,4 hPa 0,0 l/m 27,4 km/h (4 Bft) NO 44 -3,2 C -14,4 C
18.01.2019 06:15 -1,3 C 87 % 1012,6 hPa 0,0 l/m 16,1 km/h (3 Bft) NO 44 -3,2 C -9,2 C
18.01.2019 06:14 -1,3 C 87 % 1012,5 hPa 0,0 l/m 25,7 km/h (4 Bft) NO 44 -3,2 C -13,7 C
18.01.2019 06:13 -1,3 C 87 % 1012,6 hPa 0,0 l/m 9,6 km/h (2 Bft) NO 44 -3,2 C -4,5 C
18.01.2019 06:12 -1,3 C 87 % 1012,5 hPa 0,0 l/m 16,1 km/h (3 Bft) NO 44 -3,2 C -9,2 C
18.01.2019 06:11 -1,3 C 87 % 1012,3 hPa 0,0 l/m 16,1 km/h (3 Bft) NO 44 -3,2 C -9,2 C
18.01.2019 06:10 -1,3 C 87 % 1012,4 hPa 0,0 l/m 13,0 km/h (3 Bft) NO 44 -3,2 C -7,2 C
18.01.2019 06:09 -1,3 C 87 % 1012,3 hPa 0,0 l/m 16,1 km/h (3 Bft) NO 44 -3,2 C -9,2 C
18.01.2019 06:08 -1,3 C 87 % 1012,4 hPa 0,0 l/m 22,6 km/h (4 Bft) NO 44 -3,2 C -12,5 C
18.01.2019 06:07 -1,3 C 87 % 1012,3 hPa 0,0 l/m 19,3 km/h (3 Bft) NO 44 -3,2 C -11,0 C
18.01.2019 06:06 -1,2 C 87 % 1012,3 hPa 0,0 l/m 3,1 km/h (1 Bft) NO 44 -3,1 C -1,2 C
18.01.2019 06:05 -1,2 C 87 % 1012,2 hPa 0,0 l/m 8,0 km/h (2 Bft) NO 44 -3,1 C -2,9 C
18.01.2019 06:04 -1,2 C 87 % 1012,2 hPa 0,0 l/m 8,0 km/h (2 Bft) NO 44 -3,1 C -2,9 C
18.01.2019 06:03 -1,2 C 86 % 1012,1 hPa 0,0 l/m 24,1 km/h (4 Bft) NO 44 -3,2 C -13,0 C
18.01.2019 06:02 -1,2 C 86 % 1012,2 hPa 0,0 l/m 30,6 km/h (5 Bft) NO 44 -3,2 C -15,3 C
18.01.2019 06:01 -1,2 C 86 % 1012,0 hPa 0,0 l/m 28,9 km/h (5 Bft) NO 44 -3,2 C -14,7 C
18.01.2019 06:00 -1,1 C 86 % 1011,9 hPa 0,0 l/m 32,2 km/h (5 Bft) NO 44 -3,1 C -15,6 C
18.01.2019 05:59 -1,1 C 86 % 1012,1 hPa 0,0 l/m 17,8 km/h (3 Bft) NO 44 -3,1 C -9,9 C
18.01.2019 05:58 -1,1 C 85 % 1012,0 hPa 0,0 l/m 19,3 km/h (3 Bft) NO 44 -3,3 C -10,7 C
18.01.2019 05:57 -1,1 C 85 % 1011,9 hPa 0,0 l/m 25,7 km/h (4 Bft) NO 44 -3,3 C -13,5 C
18.01.2019 05:56 -1,1 C 85 % 1011,9 hPa 0,0 l/m 13,0 km/h (3 Bft) NO 44 -3,3 C -7,0 C
18.01.2019 05:55 -1,0 C 84 % 1011,9 hPa 0,0 l/m 25,7 km/h (4 Bft) NO 44 -3,4 C -13,3 C
18.01.2019 05:54 -1,0 C 84 % 1011,8 hPa 0,0 l/m 22,6 km/h (4 Bft) NO 44 -3,4 C -12,1 C
18.01.2019 05:53 -1,0 C 84 % 1011,6 hPa 0,0 l/m 30,6 km/h (5 Bft) NO 44 -3,4 C -15,0 C
18.01.2019 05:52 -1,0 C 84 % 1011,7 hPa 0,0 l/m 20,9 km/h (4 Bft) NO 44 -3,4 C -11,3 C
18.01.2019 05:51 -1,0 C 84 % 1011,7 hPa 0,0 l/m 28,9 km/h (5 Bft) NO 44 -3,4 C -14,5 C
18.01.2019 05:50 -1,0 C 83 % 1011,7 hPa 0,0 l/m 19,3 km/h (3 Bft) NO 44 -3,5 C -10,6 C
18.01.2019 05:49 -1,0 C 83 % 1011,7 hPa 0,0 l/m 28,9 km/h (5 Bft) NO 44 -3,5 C -14,5 C
18.01.2019 05:48 -1,0 C 84 % 1011,6 hPa 0,0 l/m 25,7 km/h (4 Bft) NO 44 -3,4 C -13,3 C
18.01.2019 05:47 -1,0 C 84 % 1011,6 hPa 0,0 l/m 17,8 km/h (3 Bft) NO 44 -3,4 C -9,8 C
18.01.2019 05:46 -1,0 C 84 % 1011,7 hPa 0,0 l/m 22,6 km/h (4 Bft) NO 44 -3,4 C -12,1 C
18.01.2019 05:45 -1,0 C 84 % 1011,5 hPa 0,0 l/m 24,1 km/h (4 Bft) NO 44 -3,4 C -12,7 C
18.01.2019 05:44 -1,0 C 85 % 1011,3 hPa 0,0 l/m 28,9 km/h (5 Bft) NO 44 -3,2 C -14,5 C
18.01.2019 05:43 -1,0 C 84 % 1011,5 hPa 0,0 l/m 19,3 km/h (3 Bft) NO 44 -3,4 C -10,6 C
18.01.2019 05:42 -1,0 C 85 % 1011,5 hPa 0,0 l/m 4,8 km/h (1 Bft) NO 44 -3,2 C -1,0 C
18.01.2019 05:41 -1,0 C 85 % 1011,5 hPa 0,0 l/m 25,7 km/h (4 Bft) NO 44 -3,2 C -13,3 C
18.01.2019 05:40 -1,0 C 84 % 1011,5 hPa 0,0 l/m 28,9 km/h (5 Bft) NO 44 -3,4 C -14,5 C
18.01.2019 05:39 -1,0 C 84 % 1011,5 hPa 0,0 l/m 22,6 km/h (4 Bft) NO 44 -3,4 C -12,1 C
18.01.2019 05:38 -1,0 C 85 % 1011,4 hPa 0,0 l/m 27,4 km/h (4 Bft) NO 44 -3,2 C -14,0 C
18.01.2019 05:37 -0,9 C 84 % 1011,6 hPa 0,0 l/m 4,8 km/h (1 Bft) NO 44 -3,3 C -0,9 C
18.01.2019 05:36 -0,9 C 84 % 1011,5 hPa 0,0 l/m 17,8 km/h (3 Bft) NO 44 -3,3 C -9,7 C
18.01.2019 05:35 -0,9 C 84 % 1011,3 hPa 0,0 l/m 24,1 km/h (4 Bft) NO 44 -3,3 C -12,6 C
18.01.2019 05:34 -0,9 C 84 % 1011,2 hPa 0,0 l/m 37,0 km/h (5 Bft) NO 44 -3,3 C -16,6 C
18.01.2019 05:33 -0,9 C 84 % 1011,4 hPa 0,0 l/m 14,4 km/h (3 Bft) NO 44 -3,3 C -7,7 C
18.01.2019 05:32 -0,9 C 84 % 1011,3 hPa 0,0 l/m 17,8 km/h (3 Bft) NO 44 -3,3 C -9,7 C
18.01.2019 05:31 -0,9 C 84 % 1011,4 hPa 0,0 l/m 24,1 km/h (4 Bft) NO 44 -3,3 C -12,6 C
18.01.2019 05:30 -0,9 C 84 % 1011,4 hPa 0,0 l/m 17,8 km/h (3 Bft) NO 44 -3,3 C -9,7 C
18.01.2019 05:29 -0,9 C 85 % 1011,4 hPa 0,0 l/m 9,6 km/h (2 Bft) NO 44 -3,1 C -4,1 C
18.01.2019 05:28 -0,9 C 86 % 1011,3 hPa 0,0 l/m 14,4 km/h (3 Bft) NO 44 -2,9 C -7,7 C
18.01.2019 05:27 -0,9 C 85 % 1011,3 hPa 0,0 l/m 17,8 km/h (3 Bft) NO 44 -3,1 C -9,7 C
18.01.2019 05:26 -0,9 C 85 % 1011,4 hPa 0,0 l/m 17,8 km/h (3 Bft) NO 44 -3,1 C -9,7 C
18.01.2019 05:25 -0,9 C 86 % 1011,3 hPa 0,0 l/m 22,6 km/h (4 Bft) NO 44 -2,9 C -12,0 C
18.01.2019 05:24 -0,9 C 87 % 1011,3 hPa 0,0 l/m 22,6 km/h (4 Bft) NO 44 -2,8 C -12,0 C
18.01.2019 05:23 -0,8 C 87 % 1011,2 hPa 0,0 l/m 28,9 km/h (5 Bft) NO 44 -2,7 C -14,2 C
18.01.2019 05:22 -0,8 C 87 % 1011,4 hPa 0,0 l/m 19,3 km/h (3 Bft) NO 44 -2,7 C -10,3 C
18.01.2019 05:21 -0,8 C 88 % 1011,3 hPa 0,0 l/m 9,6 km/h (2 Bft) NO 44 -2,5 C -4,0 C
18.01.2019 05:20 -0,8 C 88 % 1011,3 hPa 0,0 l/m 27,4 km/h (4 Bft) NO 44 -2,5 C -13,7 C
18.01.2019 05:19 -0,8 C 88 % 1011,3 hPa 0,0 l/m 19,3 km/h (3 Bft) NO 44 -2,5 C -10,3 C
18.01.2019 05:18 -0,8 C 88 % 1011,2 hPa 0,0 l/m 16,1 km/h (3 Bft) NO 44 -2,5 C -8,6 C
18.01.2019 05:17 -0,8 C 88 % 1011,1 hPa 0,0 l/m 20,9 km/h (4 Bft) NO 44 -2,5 C -11,1 C
18.01.2019 05:16 -0,7 C 88 % 1011,3 hPa 0,0 l/m 17,8 km/h (3 Bft) NO 44 -2,4 C -9,4 C
18.01.2019 05:15 -0,7 C 89 % 1011,4 hPa 0,0 l/m 17,8 km/h (3 Bft) NO 44 -2,3 C -9,4 C
18.01.2019 05:14 -0,7 C 89 % 1011,1 hPa 0,0 l/m 8,0 km/h (2 Bft) NO 44 -2,3 C -2,4 C
18.01.2019 05:13 -0,6 C 89 % 1011,3 hPa 0,0 l/m 25,7 km/h (4 Bft) NO 44 -2,2 C -12,8 C
18.01.2019 05:11 -0,5 C 90 % 1011,2 hPa 0,0 l/m 6,5 km/h (2 Bft) NO 44 -1,9 C -0,6 C
18.01.2019 05:10 -0,5 C 91 % 1011,1 hPa 0,0 l/m 25,7 km/h (4 Bft) NO 44 -1,8 C -12,7 C
18.01.2019 05:09 -0,5 C 91 % 1011,2 hPa 0,0 l/m 17,8 km/h (3 Bft) NO 44 -1,8 C -9,2 C
18.01.2019 05:08 -0,5 C 91 % 1011,1 hPa 0,0 l/m 24,1 km/h (4 Bft) NO 44 -1,8 C -12,0 C
18.01.2019 05:07 -0,5 C 91 % 1011,1 hPa 0,0 l/m 24,1 km/h (4 Bft) NO 44 -1,8 C -12,0 C
18.01.2019 05:06 -0,5 C 91 % 1011,0 hPa 0,0 l/m 19,3 km/h (3 Bft) NO 44 -1,8 C -9,9 C
18.01.2019 05:05 -0,5 C 91 % 1011,1 hPa 0,0 l/m 17,8 km/h (3 Bft) NO 44 -1,8 C -9,2 C
18.01.2019 05:04 -0,5 C 91 % 1010,9 hPa 0,0 l/m 17,8 km/h (3 Bft) NO 44 -1,8 C -9,2 C
18.01.2019 05:03 -0,5 C 91 % 1011,0 hPa 0,0 l/m 14,4 km/h (3 Bft) NO 44 -1,8 C -7,2 C
18.01.2019 05:02 -0,5 C 91 % 1010,9 hPa 0,0 l/m 19,3 km/h (3 Bft) NO 44 -1,8 C -9,9 C
18.01.2019 05:01 -0,5 C 92 % 1010,9 hPa 0,0 l/m 27,4 km/h (4 Bft) NO 44 -1,6 C -13,3 C
18.01.2019 05:00 -0,5 C 91 % 1010,9 hPa 0,0 l/m 17,8 km/h (3 Bft) NO 44 -1,8 C -9,2 C
18.01.2019 04:59 -0,5 C 92 % 1010,6 hPa 0,0 l/m 17,8 km/h (3 Bft) NO 44 -1,6 C -9,2 C
18.01.2019 04:58 -0,5 C 92 % 1010,9 hPa 0,0 l/m 30,6 km/h (5 Bft) NO 44 -1,6 C -14,3 C
18.01.2019 04:57 -0,5 C 92 % 1010,7 hPa 0,0 l/m 16,1 km/h (3 Bft) NO 44 -1,6 C -8,2 C
18.01.2019 04:56 -0,5 C 92 % 1010,9 hPa 0,0 l/m 24,1 km/h (4 Bft) NO 44 -1,6 C -12,0 C
18.01.2019 04:55 -0,5 C 92 % 1010,8 hPa 0,0 l/m 17,8 km/h (3 Bft) NO 44 -1,6 C -9,2 C
18.01.2019 04:54 -0,5 C 92 % 1010,8 hPa 0,0 l/m 19,3 km/h (3 Bft) NO 44 -1,6 C -9,9 C
18.01.2019 04:53 -0,5 C 92 % 1010,7 hPa 0,0 l/m 30,6 km/h (5 Bft) NO 44 -1,6 C -14,3 C
18.01.2019 04:52 -0,6 C 92 % 1010,8 hPa 0,0 l/m 20,9 km/h (4 Bft) NO 44 -1,7 C -10,8 C
18.01.2019 04:51 -0,6 C 92 % 1010,7 hPa 0,0 l/m 38,7 km/h (5 Bft) NO 44 -1,7 C -16,5 C
18.01.2019 04:50 -0,6 C 92 % 1010,7 hPa 0,0 l/m 30,6 km/h (5 Bft) NO 44 -1,7 C -14,4 C
18.01.2019 04:49 -0,6 C 92 % 1010,7 hPa 0,0 l/m 19,3 km/h (3 Bft) NO 44 -1,7 C -10,1 C
18.01.2019 04:48 -0,6 C 92 % 1010,7 hPa 0,0 l/m 14,4 km/h (3 Bft) NO 44 -1,7 C -7,3 C
18.01.2019 04:47 -0,6 C 93 % 1010,7 hPa 0,0 l/m 16,1 km/h (3 Bft) NO 44 -1,6 C -8,4 C
18.01.2019 04:46 -0,6 C 92 % 1010,7 hPa 0,0 l/m 14,4 km/h (3 Bft) NO 44 -1,7 C -7,3 C
18.01.2019 04:45 -0,6 C 92 % 1010,7 hPa 0,0 l/m 17,8 km/h (3 Bft) NO 44 -1,7 C -9,3 C
18.01.2019 04:44 -0,6 C 92 % 1010,7 hPa 0,0 l/m 17,8 km/h (3 Bft) NO 44 -1,7 C -9,3 C
18.01.2019 04:43 -0,5 C 92 % 1010,6 hPa 0,0 l/m 17,8 km/h (3 Bft) NO 44 -1,6 C -9,2 C
18.01.2019 04:42 -0,5 C 92 % 1010,6 hPa 0,0 l/m 28,9 km/h (5 Bft) NO 44 -1,6 C -13,8 C
18.01.2019 04:41 -0,5 C 92 % 1010,7 hPa 0,0 l/m 19,3 km/h (3 Bft) NO 44 -1,6 C -9,9 C
18.01.2019 04:40 -0,5 C 92 % 1010,8 hPa 0,0 l/m 20,9 km/h (4 Bft) NO 44 -1,6 C -10,7 C
18.01.2019 04:39 -0,4 C 92 % 1010,9 hPa 0,0 l/m 32,2 km/h (5 Bft) NO 44 -1,5 C -14,6 C
18.01.2019 04:38 -0,4 C 92 % 1010,8 hPa 0,0 l/m 38,7 km/h (5 Bft) NO 44 -1,5 C -16,2 C
18.01.2019 04:37 -0,4 C 91 % 1010,8 hPa 0,0 l/m 30,6 km/h (5 Bft) NO 44 -1,7 C -14,2 C
18.01.2019 04:36 -0,3 C 91 % 1010,7 hPa 0,0 l/m 32,2 km/h (5 Bft) NO 44 -1,6 C -14,5 C
18.01.2019 04:35 -0,3 C 91 % 1010,8 hPa 0,0 l/m 30,6 km/h (5 Bft) NO 44 -1,6 C -14,0 C
18.01.2019 04:34 -0,3 C 91 % 1010,8 hPa 0,0 l/m 19,3 km/h (3 Bft) NO 44 -1,6 C -9,7 C
18.01.2019 04:33 -0,3 C 91 % 1010,7 hPa 0,0 l/m 19,3 km/h (3 Bft) NO 44 -1,6 C -9,7 C
18.01.2019 04:32 -0,3 C 91 % 1010,7 hPa 0,0 l/m 35,4 km/h (5 Bft) NO 44 -1,6 C -15,3 C
18.01.2019 04:31 -0,3 C 91 % 1010,9 hPa 0,0 l/m 32,2 km/h (5 Bft) NO 44 -1,6 C -14,5 C
18.01.2019 04:30 -0,3 C 91 % 1010,8 hPa 0,0 l/m 22,6 km/h (4 Bft) NO 44 -1,6 C -11,2 C
18.01.2019 04:29 -0,3 C 91 % 1010,8 hPa 0,0 l/m 17,8 km/h (3 Bft) NO 44 -1,6 C -8,9 C
18.01.2019 04:28 -0,3 C 91 % 1010,9 hPa 0,0 l/m 20,9 km/h (4 Bft) NO 44 -1,6 C -10,4 C
18.01.2019 04:27 -0,3 C 91 % 1010,8 hPa 0,0 l/m 41,9 km/h (6 Bft) NO 44 -1,6 C -16,8 C
18.01.2019 04:26 -0,3 C 91 % 1010,9 hPa 0,0 l/m 30,6 km/h (5 Bft) NO 44 -1,6 C -14,0 C
18.01.2019 04:25 -0,2 C 91 % 1010,8 hPa 0,0 l/m 19,3 km/h (3 Bft) NO 44 -1,5 C -9,6 C
18.01.2019 04:24 -0,2 C 91 % 1010,9 hPa 0,0 l/m 20,9 km/h (4 Bft) NO 44 -1,5 C -10,3 C
18.01.2019 04:23 -0,2 C 91 % 1010,8 hPa 0,0 l/m 17,8 km/h (3 Bft) NO 44 -1,5 C -8,8 C
18.01.2019 04:22 -0,2 C 90 % 1010,7 hPa 0,0 l/m 28,9 km/h (5 Bft) NO 44 -1,6 C -13,3 C
18.01.2019 04:21 -0,2 C 90 % 1010,8 hPa 0,0 l/m 27,4 km/h (4 Bft) NO 44 -1,6 C -12,8 C
18.01.2019 04:20 -0,3 C 91 % 1011,0 hPa 0,0 l/m 33,7 km/h (5 Bft) NO 44 -1,6 C -14,9 C
18.01.2019 04:19 -0,3 C 91 % 1011,0 hPa 0,0 l/m 33,7 km/h (5 Bft) NO 44 -1,6 C -14,9 C
18.01.2019 04:18 -0,2 C 91 % 1010,9 hPa 0,0 l/m 24,1 km/h (4 Bft) NO 44 -1,5 C -11,6 C
18.01.2019 04:17 -0,3 C 91 % 1010,9 hPa 0,0 l/m 32,2 km/h (5 Bft) NO 44 -1,6 C -14,5 C
18.01.2019 04:16 -0,2 C 91 % 1010,9 hPa 0,0 l/m 16,1 km/h (3 Bft) NO 44 -1,5 C -7,9 C
18.01.2019 04:15 -0,2 C 91 % 1010,9 hPa 0,0 l/m 32,2 km/h (5 Bft) NO 44 -1,5 C -14,3 C
18.01.2019 04:14 -0,2 C 91 % 1010,9 hPa 0,0 l/m 22,6 km/h (4 Bft) NO 44 -1,5 C -11,0 C
18.01.2019 04:13 -0,2 C 91 % 1010,9 hPa 0,0 l/m 33,7 km/h (5 Bft) NO 44 -1,5 C -14,7 C
18.01.2019 04:12 -0,2 C 91 % 1010,9 hPa 0,0 l/m 27,4 km/h (4 Bft) NO 44 -1,5 C -12,8 C
18.01.2019 04:11 -0,2 C 91 % 1010,8 hPa 0,0 l/m 35,4 km/h (5 Bft) NO 44 -1,5 C -15,2 C
18.01.2019 04:10 -0,2 C 91 % 1010,8 hPa 0,0 l/m 30,6 km/h (5 Bft) NO 44 -1,5 C -13,9 C
18.01.2019 04:09 -0,2 C 91 % 1010,9 hPa 0,0 l/m 30,6 km/h (5 Bft) NO 44 -1,5 C -13,9 C
18.01.2019 04:08 -0,2 C 91 % 1010,9 hPa 0,0 l/m 16,1 km/h (3 Bft) NO 44 -1,5 C -7,9 C
18.01.2019 04:07 -0,2 C 91 % 1010,9 hPa 0,0 l/m 13,0 km/h (3 Bft) NO 44 -1,5 C -5,9 C
18.01.2019 04:06 -0,2 C 91 % 1010,9 hPa 0,0 l/m 20,9 km/h (4 Bft) NO 44 -1,5 C -10,3 C
18.01.2019 04:05 -0,2 C 90 % 1010,9 hPa 0,0 l/m 17,8 km/h (3 Bft) NO 44 -1,6 C -8,8 C
18.01.2019 04:04 -0,2 C 90 % 1010,9 hPa 0,0 l/m 33,7 km/h (5 Bft) NO 44 -1,6 C -14,7 C
18.01.2019 04:03 -0,2 C 90 % 1010,9 hPa 0,0 l/m 32,2 km/h (5 Bft) NO 44 -1,6 C -14,3 C
18.01.2019 04:02 -0,2 C 90 % 1011,0 hPa 0,0 l/m 17,8 km/h (3 Bft) NO 44 -1,6 C -8,8 C
18.01.2019 04:01 -0,1 C 90 % 1010,9 hPa 0,0 l/m 19,3 km/h (3 Bft) NO 44 -1,5 C -9,4 C
18.01.2019 04:00 -0,2 C 90 % 1011,0 hPa 0,0 l/m 17,8 km/h (3 Bft) NO 44 -1,6 C -8,8 C
18.01.2019 03:59 -0,1 C 90 % 1010,9 hPa 0,0 l/m 33,7 km/h (5 Bft) NO 44 -1,5 C -14,6 C
18.01.2019 03:58 -0,1 C 90 % 1010,9 hPa 0,0 l/m 17,8 km/h (3 Bft) NO 44 -1,5 C -8,7 C
18.01.2019 03:57 -0,1 C 90 % 1010,9 hPa 0,0 l/m 27,4 km/h (4 Bft) NO 44 -1,5 C -12,7 C
18.01.2019 03:56 -0,1 C 90 % 1010,9 hPa 0,0 l/m 17,8 km/h (3 Bft) NO 44 -1,5 C -8,7 C
18.01.2019 03:55 -0,1 C 90 % 1010,7 hPa 0,0 l/m 33,7 km/h (5 Bft) NO 44 -1,5 C -14,6 C
18.01.2019 03:54 -0,1 C 90 % 1010,8 hPa 0,0 l/m 37,0 km/h (5 Bft) NO 44 -1,5 C -15,4 C
18.01.2019 03:53 -0,1 C 90 % 1010,8 hPa 0,0 l/m 30,6 km/h (5 Bft) NO 44 -1,5 C -13,7 C
18.01.2019 03:52 -0,1 C 90 % 1010,7 hPa 0,0 l/m 19,3 km/h (3 Bft) NO 44 -1,5 C -9,4 C
18.01.2019 03:51 -0,1 C 90 % 1010,8 hPa 0,0 l/m 37,0 km/h (5 Bft) NO 44 -1,5 C -15,4 C
18.01.2019 03:50 -0,1 C 90 % 1010,8 hPa 0,0 l/m 17,8 km/h (3 Bft) NO 44 -1,5 C -8,7 C
18.01.2019 03:49 -0,1 C 90 % 1010,8 hPa 0,0 l/m 30,6 km/h (5 Bft) NO 44 -1,5 C -13,7 C
18.01.2019 03:48 -0,1 C 90 % 1010,6 hPa 0,0 l/m 32,2 km/h (5 Bft) NO 44 -1,5 C -14,2 C
18.01.2019 03:47 -0,1 C 90 % 1010,8 hPa 0,0 l/m 30,6 km/h (5 Bft) NO 44 -1,5 C -13,7 C
18.01.2019 03:46 -0,1 C 90 % 1010,7 hPa 0,0 l/m 19,3 km/h (3 Bft) NO 44 -1,5 C -9,4 C
18.01.2019 03:45 -0,1 C 90 % 1010,5 hPa 0,0 l/m 30,6 km/h (5 Bft) NO 44 -1,5 C -13,7 C
18.01.2019 03:44 -0,1 C 90 % 1010,7 hPa 0,0 l/m 25,7 km/h (4 Bft) NO 44 -1,5 C -12,1 C
18.01.2019 03:43 -0,1 C 90 % 1010,6 hPa 0,0 l/m 30,6 km/h (5 Bft) NO 44 -1,5 C -13,7 C
18.01.2019 03:42 -0,1 C 90 % 1010,6 hPa 0,0 l/m 27,4 km/h (4 Bft) NO 44 -1,5 C -12,7 C
18.01.2019 03:41 -0,1 C 90 % 1010,7 hPa 0,0 l/m 20,9 km/h (4 Bft) NO 44 -1,5 C -10,2 C
18.01.2019 03:40 -0,1 C 90 % 1010,6 hPa 0,0 l/m 16,1 km/h (3 Bft) NO 44 -1,5 C -7,7 C
18.01.2019 03:39 -0,1 C 90 % 1010,6 hPa 0,0 l/m 27,4 km/h (4 Bft) NO 44 -1,5 C -12,7 C
18.01.2019 03:38 -0,1 C 90 % 1010,7 hPa 0,0 l/m 30,6 km/h (5 Bft) NO 44 -1,5 C -13,7 C
18.01.2019 03:37 -0,1 C 90 % 1010,7 hPa 0,0 l/m 19,3 km/h (3 Bft) NO 44 -1,5 C -9,4 C
18.01.2019 03:36 -0,1 C 90 % 1010,7 hPa 0,0 l/m 27,4 km/h (4 Bft) NO 44 -1,5 C -12,7 C
18.01.2019 03:35 -0,1 C 90 % 1010,6 hPa 0,0 l/m 24,1 km/h (4 Bft) NO 44 -1,5 C -11,5 C
18.01.2019 03:34 -0,1 C 90 % 1010,7 hPa 0,0 l/m 28,9 km/h (5 Bft) NO 44 -1,5 C -13,2 C
18.01.2019 03:33 -0,1 C 90 % 1010,7 hPa 0,0 l/m 24,1 km/h (4 Bft) NO 44 -1,5 C -11,5 C
18.01.2019 03:32 -0,1 C 90 % 1010,7 hPa 0,0 l/m 25,7 km/h (4 Bft) NO 44 -1,5 C -12,1 C
18.01.2019 03:31 -0,1 C 90 % 1010,6 hPa 0,0 l/m 32,2 km/h (5 Bft) NO 44 -1,5 C -14,2 C
18.01.2019 03:30 -0,1 C 90 % 1010,6 hPa 0,0 l/m 20,9 km/h (4 Bft) NO 44 -1,5 C -10,2 C
18.01.2019 03:29 -0,1 C 90 % 1010,7 hPa 0,0 l/m 30,6 km/h (5 Bft) NO 44 -1,5 C -13,7 C
18.01.2019 03:28 -0,1 C 91 % 1010,9 hPa 0,0 l/m 32,2 km/h (5 Bft) NO 44 -1,4 C -14,2 C
18.01.2019 03:27 -0,1 C 91 % 1010,8 hPa 0,0 l/m 27,4 km/h (4 Bft) NO 44 -1,4 C -12,7 C
18.01.2019 03:26 -0,1 C 90 % 1010,8 hPa 0,0 l/m 30,6 km/h (5 Bft) NO 44 -1,5 C -13,7 C
18.01.2019 03:25 0,0 C 90 % 1010,8 hPa 0,0 l/m 30,6 km/h (5 Bft) NO 44 -1,4 C -13,6 C
18.01.2019 03:24 0,0 C 91 % 1010,9 hPa 0,0 l/m 37,0 km/h (5 Bft) NO 44 -1,3 C -15,3 C
18.01.2019 03:23 -0,1 C 91 % 1010,8 hPa 0,0 l/m 28,9 km/h (5 Bft) NO 44 -1,4 C -13,2 C
18.01.2019 03:22 -0,1 C 91 % 1010,9 hPa 0,0 l/m 22,6 km/h (4 Bft) NO 44 -1,4 C -10,9 C
18.01.2019 03:21 -0,1 C 91 % 1010,8 hPa 0,0 l/m 20,9 km/h (4 Bft) NO 44 -1,4 C -10,2 C
18.01.2019 03:20 -0,1 C 91 % 1010,8 hPa 0,0 l/m 28,9 km/h (5 Bft) NO 44 -1,4 C -13,2 C
18.01.2019 03:19 0,0 C 91 % 1010,9 hPa 0,0 l/m 30,6 km/h (5 Bft) NO 44 -1,3 C -13,6 C
18.01.2019 03:18 0,0 C 91 % 1010,8 hPa 0,0 l/m 25,7 km/h (4 Bft) NO 44 -1,3 C -12,0 C
18.01.2019 03:17 0,0 C 91 % 1010,8 hPa 0,0 l/m 32,2 km/h (5 Bft) NO 44 -1,3 C -14,0 C
18.01.2019 03:16 0,0 C 91 % 1010,8 hPa 0,0 l/m 25,7 km/h (4 Bft) NO 44 -1,3 C -12,0 C
18.01.2019 03:15 0,0 C 91 % 1010,9 hPa 0,0 l/m 30,6 km/h (5 Bft) NO 44 -1,3 C -13,6 C
18.01.2019 03:14 0,0 C 91 % 1010,8 hPa 0,0 l/m 20,9 km/h (4 Bft) NO 44 -1,3 C -10,0 C
18.01.2019 03:13 0,0 C 91 % 1010,8 hPa 0,0 l/m 32,2 km/h (5 Bft) NO 44 -1,3 C -14,0 C
18.01.2019 03:12 0,0 C 91 % 1010,7 hPa 0,0 l/m 27,4 km/h (4 Bft) NO 44 -1,3 C -12,6 C
18.01.2019 03:11 0,0 C 91 % 1010,8 hPa 0,0 l/m 40,2 km/h (6 Bft) NO 44 -1,3 C -16,0 C
18.01.2019 03:10 0,0 C 91 % 1010,7 hPa 0,0 l/m 27,4 km/h (4 Bft) NO 44 -1,3 C -12,6 C
18.01.2019 03:09 0,0 C 91 % 1010,6 hPa 0,0 l/m 27,4 km/h (4 Bft) NO 44 -1,3 C -12,6 C
18.01.2019 03:08 0,0 C 91 % 1010,7 hPa 0,0 l/m 17,8 km/h (3 Bft) NO 44 -1,3 C -8,5 C
18.01.2019 03:07 0,0 C 91 % 1010,7 hPa 0,0 l/m 20,9 km/h (4 Bft) NO 44 -1,3 C -10,0 C
18.01.2019 03:06 0,1 C 91 % 1010,7 hPa 0,0 l/m 19,3 km/h (3 Bft) NO 44 -1,2 C -9,2 C
18.01.2019 03:05 0,1 C 91 % 1010,6 hPa 0,0 l/m 14,4 km/h (3 Bft) NO 44 -1,2 C -6,5 C
18.01.2019 03:04 0,1 C 91 % 1010,6 hPa 0,0 l/m 25,7 km/h (4 Bft) NO 44 -1,2 C -11,8 C
18.01.2019 03:03 0,1 C 91 % 1010,6 hPa 0,0 l/m 25,7 km/h (4 Bft) NO 44 -1,2 C -11,8 C
18.01.2019 03:02 0,1 C 91 % 1010,7 hPa 0,0 l/m 25,7 km/h (4 Bft) NO 44 -1,2 C -11,8 C
18.01.2019 03:01 0,1 C 91 % 1010,7 hPa 0,0 l/m 25,7 km/h (4 Bft) NO 44 -1,2 C -11,8 C
18.01.2019 03:00 0,1 C 91 % 1010,7 hPa 0,0 l/m 33,7 km/h (5 Bft) NO 44 -1,2 C -14,3 C
18.01.2019 02:59 0,1 C 91 % 1010,7 hPa 0,0 l/m 27,4 km/h (4 Bft) NO 44 -1,2 C -12,4 C
18.01.2019 02:58 0,1 C 91 % 1010,6 hPa 0,0 l/m 27,4 km/h (4 Bft) NO 44 -1,2 C -12,4 C
18.01.2019 02:57 0,1 C 91 % 1010,6 hPa 0,0 l/m 27,4 km/h (4 Bft) NO 44 -1,2 C -12,4 C
18.01.2019 02:56 0,2 C 91 % 1010,6 hPa 0,0 l/m 20,9 km/h (4 Bft) NO 44 -1,1 C -9,8 C
18.01.2019 02:55 0,2 C 91 % 1010,6 hPa 0,0 l/m 16,1 km/h (3 Bft) NO 44 -1,1 C -7,4 C
18.01.2019 02:53 0,2 C 91 % 1010,7 hPa 0,0 l/m 24,1 km/h (4 Bft) NO 44 -1,1 C -11,1 C
18.01.2019 02:52 0,2 C 91 % 1010,6 hPa 0,0 l/m 17,8 km/h (3 Bft) NO 44 -1,1 C -8,3 C
18.01.2019 02:51 0,2 C 91 % 1010,6 hPa 0,0 l/m 27,4 km/h (4 Bft) NO 44 -1,1 C -12,3 C
18.01.2019 02:50 0,2 C 91 % 1010,7 hPa 0,0 l/m 19,3 km/h (3 Bft) NO 44 -1,1 C -9,0 C
18.01.2019 02:49 0,2 C 91 % 1010,6 hPa 0,0 l/m 17,8 km/h (3 Bft) NO 44 -1,1 C -8,3 C
18.01.2019 02:48 0,2 C 91 % 1010,7 hPa 0,0 l/m 28,9 km/h (5 Bft) NO 44 -1,1 C -12,8 C
18.01.2019 02:47 0,2 C 92 % 1010,7 hPa 0,0 l/m 28,9 km/h (5 Bft) NO 44 -0,9 C -12,8 C
18.01.2019 02:46 0,3 C 92 % 1010,7 hPa 0,0 l/m 28,9 km/h (5 Bft) NO 44 -0,8 C -12,6 C
18.01.2019 02:45 0,3 C 92 % 1010,7 hPa 0,0 l/m 22,6 km/h (4 Bft) NO 44 -0,8 C -10,4 C
18.01.2019 02:44 0,3 C 91 % 1010,7 hPa 0,0 l/m 24,1 km/h (4 Bft) NO 44 -1,0 C -11,0 C
18.01.2019 02:43 0,3 C 92 % 1010,7 hPa 0,0 l/m 27,4 km/h (4 Bft) NO 44 -0,8 C -12,2 C
18.01.2019 02:42 0,3 C 92 % 1010,7 hPa 0,0 l/m 35,4 km/h (5 Bft) NO 44 -0,8 C -14,5 C
18.01.2019 02:41 0,3 C 92 % 1010,7 hPa 0,0 l/m 19,3 km/h (3 Bft) NO 44 -0,8 C -8,9 C
18.01.2019 02:40 0,3 C 92 % 1010,8 hPa 0,0 l/m 24,1 km/h (4 Bft) NO 44 -0,8 C -11,0 C
18.01.2019 02:39 0,3 C 92 % 1010,8 hPa 0,0 l/m 16,1 km/h (3 Bft) NO 44 -0,8 C -7,3 C
18.01.2019 02:38 0,3 C 92 % 1010,8 hPa 0,0 l/m 24,1 km/h (4 Bft) NO 44 -0,8 C -11,0 C
18.01.2019 02:37 0,3 C 92 % 1010,9 hPa 0,0 l/m 20,9 km/h (4 Bft) NO 44 -0,8 C -9,7 C
18.01.2019 02:36 0,4 C 92 % 1010,8 hPa 0,0 l/m 25,7 km/h (4 Bft) NO 44 -0,7 C -11,4 C
18.01.2019 02:35 0,4 C 92 % 1010,8 hPa 0,0 l/m 33,7 km/h (5 Bft) NO 44 -0,7 C -13,9 C
18.01.2019 02:34 0,4 C 92 % 1010,8 hPa 0,0 l/m 25,7 km/h (4 Bft) NO 44 -0,7 C -11,4 C
18.01.2019 02:33 0,4 C 92 % 1010,8 hPa 0,0 l/m 22,6 km/h (4 Bft) NO 44 -0,7 C -10,2 C
18.01.2019 02:32 0,4 C 92 % 1010,8 hPa 0,0 l/m 17,8 km/h (3 Bft) NO 44 -0,7 C -8,0 C
18.01.2019 02:31 0,4 C 92 % 1010,8 hPa 0,0 l/m 22,6 km/h (4 Bft) NO 44 -0,7 C -10,2 C
18.01.2019 02:30 0,4 C 92 % 1010,8 hPa 0,0 l/m 16,1 km/h (3 Bft) NO 44 -0,7 C -7,1 C
18.01.2019 02:29 0,4 C 92 % 1010,8 hPa 0,0 l/m 28,9 km/h (5 Bft) NO 44 -0,7 C -12,5 C
18.01.2019 02:28 0,4 C 92 % 1010,8 hPa 0,0 l/m 24,1 km/h (4 Bft) NO 44 -0,7 C -10,8 C
18.01.2019 02:27 0,5 C 92 % 1010,8 hPa 0,0 l/m 22,6 km/h (4 Bft) NO 44 -0,6 C -10,1 C
18.01.2019 02:26 0,5 C 91 % 1010,8 hPa 0,0 l/m 13,0 km/h (3 Bft) NO 44 -0,8 C -5,1 C
18.01.2019 02:25 0,5 C 91 % 1010,8 hPa 0,0 l/m 20,9 km/h (4 Bft) NO 44 -0,8 C -9,4 C
18.01.2019 02:24 0,5 C 91 % 1010,8 hPa 0,0 l/m 19,3 km/h (3 Bft) NO 44 -0,8 C -8,7 C
18.01.2019 02:23 0,5 C 91 % 1010,8 hPa 0,0 l/m 14,4 km/h (3 Bft) NO 44 -0,8 C -6,0 C
18.01.2019 02:22 0,6 C 91 % 1010,8 hPa 0,0 l/m 14,4 km/h (3 Bft) NO 44 -0,7 C -5,9 C
18.01.2019 02:21 0,6 C 91 % 1010,8 hPa 0,0 l/m 30,6 km/h (5 Bft) NO 44 -0,7 C -12,7 C
18.01.2019 02:20 0,7 C 90 % 1010,8 hPa 0,0 l/m 22,6 km/h (4 Bft) NO 44 -0,7 C -9,8 C
18.01.2019 02:19 0,7 C 90 % 1010,8 hPa 0,0 l/m 25,7 km/h (4 Bft) NO 44 -0,7 C -11,0 C
18.01.2019 02:18 0,7 C 89 % 1010,8 hPa 0,0 l/m 9,6 km/h (2 Bft) NO 44 -0,9 C -2,3 C
18.01.2019 02:17 0,8 C 89 % 1010,8 hPa 0,0 l/m 17,8 km/h (3 Bft) NO 44 -0,8 C -7,5 C
18.01.2019 02:16 0,8 C 88 % 1010,8 hPa 0,0 l/m 25,7 km/h (4 Bft) NO 44 -1,0 C -10,9 C
18.01.2019 02:15 0,8 C 88 % 1010,7 hPa 0,0 l/m 17,8 km/h (3 Bft) NO 44 -1,0 C -7,5 C
18.01.2019 02:14 0,8 C 88 % 1010,8 hPa 0,0 l/m 14,4 km/h (3 Bft) NO 44 -1,0 C -5,7 C
18.01.2019 02:13 0,8 C 87 % 1010,7 hPa 0,0 l/m 17,8 km/h (3 Bft) NO 44 -1,1 C -7,5 C
18.01.2019 02:12 0,8 C 88 % 1010,7 hPa 0,0 l/m 24,1 km/h (4 Bft) NO 44 -1,0 C -10,3 C
18.01.2019 02:11 0,8 C 88 % 1010,6 hPa 0,0 l/m 25,7 km/h (4 Bft) NO 44 -1,0 C -10,9 C
18.01.2019 02:10 0,8 C 88 % 1010,7 hPa 0,0 l/m 28,9 km/h (5 Bft) NO 44 -1,0 C -11,9 C
18.01.2019 02:09 0,8 C 88 % 1010,7 hPa 0,0 l/m 20,9 km/h (4 Bft) NO 44 -1,0 C -9,0 C
18.01.2019 02:08 0,8 C 88 % 1010,5 hPa 0,0 l/m 24,1 km/h (4 Bft) NO 44 -1,0 C -10,3 C
18.01.2019 02:07 0,8 C 88 % 1010,7 hPa 0,0 l/m 22,6 km/h (4 Bft) NO 44 -1,0 C -9,7 C
18.01.2019 02:06 0,8 C 88 % 1010,6 hPa 0,0 l/m 20,9 km/h (4 Bft) NO 44 -1,0 C -9,0 C
18.01.2019 02:05 0,8 C 88 % 1010,7 hPa 0,0 l/m 27,4 km/h (4 Bft) NO 44 -1,0 C -11,5 C
18.01.2019 02:04 0,9 C 88 % 1010,6 hPa 0,0 l/m 17,8 km/h (3 Bft) NO 44 -0,9 C -7,4 C
18.01.2019 02:03 0,9 C 88 % 1010,6 hPa 0,0 l/m 28,9 km/h (5 Bft) NO 44 -0,9 C -11,8 C
18.01.2019 02:02 0,9 C 88 % 1010,5 hPa 0,0 l/m 32,2 km/h (5 Bft) NO 44 -0,9 C -12,8 C
18.01.2019 02:01 0,8 C 88 % 1010,5 hPa 0,0 l/m 33,7 km/h (5 Bft) NO 44 -1,0 C -13,3 C
18.01.2019 02:00 0,8 C 88 % 1010,6 hPa 0,0 l/m 25,7 km/h (4 Bft) NO 44 -1,0 C -10,9 C
18.01.2019 01:59 0,8 C 88 % 1010,4 hPa 0,0 l/m 28,9 km/h (5 Bft) NO 44 -1,0 C -11,9 C
18.01.2019 01:58 0,9 C 88 % 1010,6 hPa 0,0 l/m 17,8 km/h (3 Bft) NO 44 -0,9 C -7,4 C
18.01.2019 01:57 0,9 C 88 % 1010,5 hPa 0,0 l/m 17,8 km/h (3 Bft) NO 44 -0,9 C -7,4 C
18.01.2019 01:56 0,9 C 88 % 1010,5 hPa 0,0 l/m 19,3 km/h (3 Bft) NO 44 -0,9 C -8,1 C
18.01.2019 01:55 0,9 C 88 % 1010,5 hPa 0,0 l/m 22,6 km/h (4 Bft) NO 44 -0,9 C -9,6 C
18.01.2019 01:54 0,9 C 88 % 1010,5 hPa 0,0 l/m 24,1 km/h (4 Bft) NO 44 -0,9 C -10,2 C
18.01.2019 01:53 0,9 C 88 % 1010,3 hPa 0,0 l/m 30,6 km/h (5 Bft) NO 44 -0,9 C -12,3 C
18.01.2019 01:52 0,9 C 88 % 1010,5 hPa 0,0 l/m 27,4 km/h (4 Bft) NO 44 -0,9 C -11,3 C
18.01.2019 01:51 0,9 C 88 % 1010,5 hPa 0,0 l/m 22,6 km/h (4 Bft) NO 44 -0,9 C -9,6 C
18.01.2019 01:50 1,0 C 88 % 1010,3 hPa 0,0 l/m 20,9 km/h (4 Bft) NO 44 -0,8 C -8,7 C
18.01.2019 01:49 1,0 C 88 % 1010,5 hPa 0,0 l/m 30,6 km/h (5 Bft) NO 44 -0,8 C -12,2 C
18.01.2019 01:48 1,0 C 88 % 1010,4 hPa 0,0 l/m 25,7 km/h (4 Bft) NO 44 -0,8 C -10,6 C
18.01.2019 01:47 1,0 C 88 % 1010,5 hPa 0,0 l/m 28,9 km/h (5 Bft) NO 44 -0,8 C -11,7 C
18.01.2019 01:46 1,0 C 88 % 1010,3 hPa 0,0 l/m 17,8 km/h (3 Bft) NO 44 -0,8 C -7,3 C
18.01.2019 01:45 1,0 C 89 % 1010,3 hPa 0,0 l/m 20,9 km/h (4 Bft) NO 44 -0,6 C -8,7 C
18.01.2019 01:44 1,0 C 88 % 1010,5 hPa 0,0 l/m 17,8 km/h (3 Bft) NO 44 -0,8 C -7,3 C
18.01.2019 01:43 1,0 C 88 % 1010,4 hPa 0,0 l/m 17,8 km/h (3 Bft) NO 44 -0,8 C -7,3 C
18.01.2019 01:42 1,0 C 88 % 1010,3 hPa 0,0 l/m 22,6 km/h (4 Bft) NO 44 -0,8 C -9,4 C
18.01.2019 01:41 1,1 C 88 % 1010,3 hPa 0,0 l/m 20,9 km/h (4 Bft) NO 44 -0,7 C -8,6 C
18.01.2019 01:40 1,1 C 88 % 1010,1 hPa 0,0 l/m 27,4 km/h (4 Bft) NO 44 -0,7 C -11,1 C
18.01.2019 01:39 1,1 C 87 % 1010,4 hPa 0,0 l/m 37,0 km/h (5 Bft) NO 44 -0,8 C -13,7 C
18.01.2019 01:38 1,2 C 87 % 1010,2 hPa 0,0 l/m 24,1 km/h (4 Bft) NO 44 -0,7 C -9,8 C
18.01.2019 01:37 1,2 C 87 % 1010,2 hPa 0,0 l/m 38,7 km/h (5 Bft) NO 44 -0,7 C -13,9 C
18.01.2019 01:36 1,2 C 88 % 1010,2 hPa 0,0 l/m 30,6 km/h (5 Bft) NO 44 -0,6 C -11,9 C
18.01.2019 01:35 1,2 C 88 % 1010,3 hPa 0,0 l/m 40,2 km/h (6 Bft) NO 44 -0,6 C -14,2 C
18.01.2019 01:34 1,2 C 88 % 1010,1 hPa 0,0 l/m 27,4 km/h (4 Bft) NO 44 -0,6 C -10,9 C
18.01.2019 01:33 1,2 C 88 % 1010,2 hPa 0,0 l/m 30,6 km/h (5 Bft) NO 44 -0,6 C -11,9 C
18.01.2019 01:32 1,2 C 88 % 1010,3 hPa 0,0 l/m 30,6 km/h (5 Bft) NO 44 -0,6 C -11,9 C
18.01.2019 01:31 1,2 C 88 % 1010,3 hPa 0,0 l/m 19,3 km/h (3 Bft) NO 44 -0,6 C -7,8 C
18.01.2019 01:30 1,2 C 88 % 1010,2 hPa 0,0 l/m 30,6 km/h (5 Bft) NO 44 -0,6 C -11,9 C
18.01.2019 01:29 1,2 C 88 % 1010,2 hPa 0,0 l/m 33,7 km/h (5 Bft) NO 44 -0,6 C -12,7 C
18.01.2019 01:28 1,3 C 88 % 1010,2 hPa 0,0 l/m 25,7 km/h (4 Bft) NO 44 -0,5 C -10,2 C
18.01.2019 01:27 1,3 C 88 % 1010,2 hPa 0,0 l/m 22,6 km/h (4 Bft) NO 44 -0,5 C -9,1 C
18.01.2019 01:26 1,3 C 88 % 1010,2 hPa 0,0 l/m 22,6 km/h (4 Bft) NO 44 -0,5 C -9,1 C
18.01.2019 01:25 1,3 C 88 % 1010,2 hPa 0,0 l/m 32,2 km/h (5 Bft) NO 44 -0,5 C -12,2 C
18.01.2019 01:24 1,3 C 88 % 1010,2 hPa 0,0 l/m 19,3 km/h (3 Bft) NO 44 -0,5 C -7,6 C
18.01.2019 01:23 1,3 C 88 % 1010,1 hPa 0,0 l/m 25,7 km/h (4 Bft) NO 44 -0,5 C -10,2 C
18.01.2019 01:22 1,3 C 88 % 1010,2 hPa 0,0 l/m 22,6 km/h (4 Bft) NO 44 -0,5 C -9,1 C
18.01.2019 01:21 1,3 C 88 % 1010,1 hPa 0,0 l/m 27,4 km/h (4 Bft) NO 44 -0,5 C -10,8 C
18.01.2019 01:20 1,3 C 88 % 1010,2 hPa 0,0 l/m 33,7 km/h (5 Bft) NO 44 -0,5 C -12,6 C
18.01.2019 01:19 1,3 C 89 % 1010,1 hPa 0,0 l/m 24,1 km/h (4 Bft) NO 44 -0,3 C -9,6 C
18.01.2019 01:18 1,3 C 89 % 1010,2 hPa 0,0 l/m 16,1 km/h (3 Bft) NO 44 -0,3 C -6,0 C
18.01.2019 01:17 1,3 C 89 % 1010,1 hPa 0,0 l/m 25,7 km/h (4 Bft) NO 44 -0,3 C -10,2 C
18.01.2019 01:15 1,3 C 89 % 1010,1 hPa 0,0 l/m 22,6 km/h (4 Bft) NO 44 -0,3 C -9,1 C
18.01.2019 01:14 1,4 C 88 % 1010,1 hPa 0,0 l/m 16,1 km/h (3 Bft) NO 44 -0,4 C -5,9 C
18.01.2019 01:13 1,4 C 88 % 1010,0 hPa 0,0 l/m 28,9 km/h (5 Bft) NO 44 -0,4 C -11,1 C
18.01.2019 01:12 1,4 C 88 % 1009,9 hPa 0,0 l/m 22,6 km/h (4 Bft) NO 44 -0,4 C -8,9 C
18.01.2019 01:11 1,4 C 88 % 1009,9 hPa 0,0 l/m 22,6 km/h (4 Bft) NO 44 -0,4 C -8,9 C
18.01.2019 01:10 1,4 C 88 % 1010,0 hPa 0,0 l/m 17,8 km/h (3 Bft) NO 44 -0,4 C -6,8 C
18.01.2019 01:09 1,4 C 88 % 1009,9 hPa 0,0 l/m 25,7 km/h (4 Bft) NO 44 -0,4 C -10,1 C
18.01.2019 01:08 1,4 C 88 % 1009,9 hPa 0,0 l/m 30,6 km/h (5 Bft) NO 44 -0,4 C -11,6 C
18.01.2019 01:07 1,4 C 88 % 1009,9 hPa 0,0 l/m 17,8 km/h (3 Bft) NO 44 -0,4 C -6,8 C
18.01.2019 01:06 1,4 C 88 % 1009,8 hPa 0,0 l/m 28,9 km/h (5 Bft) NO 44 -0,4 C -11,1 C
18.01.2019 01:05 1,4 C 88 % 1009,9 hPa 0,0 l/m 27,4 km/h (4 Bft) NO 44 -0,4 C -10,6 C
18.01.2019 01:04 1,4 C 88 % 1009,8 hPa 0,0 l/m 30,6 km/h (5 Bft) NO 44 -0,4 C -11,6 C
18.01.2019 01:03 1,5 C 87 % 1009,8 hPa 0,0 l/m 32,2 km/h (5 Bft) NO 44 -0,4 C -11,9 C
18.01.2019 01:02 1,5 C 87 % 1009,7 hPa 0,0 l/m 27,4 km/h (4 Bft) NO 44 -0,4 C -10,5 C
18.01.2019 01:01 1,5 C 87 % 1009,8 hPa 0,0 l/m 32,2 km/h (5 Bft) NO 44 -0,4 C -11,9 C
18.01.2019 01:00 1,5 C 87 % 1009,9 hPa 0,0 l/m 30,6 km/h (5 Bft) NO 44 -0,4 C -11,5 C
18.01.2019 00:59 1,5 C 87 % 1009,8 hPa 0,0 l/m 41,9 km/h (6 Bft) NO 44 -0,4 C -14,1 C
18.01.2019 00:58 1,5 C 87 % 1009,8 hPa 0,0 l/m 35,4 km/h (5 Bft) NO 44 -0,4 C -12,7 C
18.01.2019 00:57 1,5 C 87 % 1009,8 hPa 0,0 l/m 32,2 km/h (5 Bft) NO 44 -0,4 C -11,9 C
18.01.2019 00:56 1,5 C 87 % 1009,9 hPa 0,0 l/m 22,6 km/h (4 Bft) NO 44 -0,4 C -8,8 C
18.01.2019 00:55 1,5 C 87 % 1009,8 hPa 0,0 l/m 22,6 km/h (4 Bft) NO 44 -0,4 C -8,8 C
18.01.2019 00:54 1,5 C 87 % 1009,9 hPa 0,0 l/m 27,4 km/h (4 Bft) NO 44 -0,4 C -10,5 C
18.01.2019 00:53 1,6 C 86 % 1009,8 hPa 0,0 l/m 30,6 km/h (5 Bft) NO 44 -0,5 C -11,3 C
18.01.2019 00:52 1,6 C 86 % 1009,8 hPa 0,0 l/m 33,7 km/h (5 Bft) NO 44 -0,5 C -12,2 C
18.01.2019 00:51 1,7 C 86 % 1009,7 hPa 0,0 l/m 32,2 km/h (5 Bft) NO 44 -0,4 C -11,6 C
18.01.2019 00:50 1,7 C 86 % 1009,7 hPa 0,0 l/m 35,4 km/h (5 Bft) NO 44 -0,4 C -12,4 C
18.01.2019 00:49 1,7 C 87 % 1009,8 hPa 0,0 l/m 33,7 km/h (5 Bft) NO 44 -0,2 C -12,0 C
18.01.2019 00:48 1,7 C 86 % 1009,8 hPa 0,0 l/m 35,4 km/h (5 Bft) NO 44 -0,4 C -12,4 C
18.01.2019 00:47 1,7 C 86 % 1009,8 hPa 0,0 l/m 41,9 km/h (6 Bft) NO 44 -0,4 C -13,8 C
18.01.2019 00:46 1,7 C 87 % 1009,7 hPa 0,0 l/m 27,4 km/h (4 Bft) NO 44 -0,2 C -10,2 C
18.01.2019 00:45 1,7 C 87 % 1009,7 hPa 0,0 l/m 35,4 km/h (5 Bft) NO 44 -0,2 C -12,4 C
18.01.2019 00:44 1,7 C 87 % 1009,7 hPa 0,0 l/m 37,0 km/h (5 Bft) NO 44 -0,2 C -12,8 C
18.01.2019 00:43 1,7 C 87 % 1009,7 hPa 0,0 l/m 35,4 km/h (5 Bft) NO 44 -0,2 C -12,4 C
18.01.2019 00:42 1,7 C 87 % 1009,7 hPa 0,0 l/m 32,2 km/h (5 Bft) NO 44 -0,2 C -11,6 C
18.01.2019 00:41 1,7 C 87 % 1009,7 hPa 0,0 l/m 43,5 km/h (6 Bft) NO 44 -0,2 C -14,1 C
18.01.2019 00:40 1,7 C 87 % 1009,6 hPa 0,0 l/m 41,9 km/h (6 Bft) NO 44 -0,2 C -13,8 C
18.01.2019 00:39 1,7 C 87 % 1009,6 hPa 0,0 l/m 40,2 km/h (6 Bft) NO 44 -0,2 C -13,5 C
18.01.2019 00:38 1,6 C 88 % 1009,7 hPa 0,0 l/m 35,4 km/h (5 Bft) NO 44 -0,2 C -12,6 C
18.01.2019 00:37 1,5 C 88 % 1009,7 hPa 0,0 l/m 43,5 km/h (6 Bft) NO 44 -0,3 C -14,4 C
18.01.2019 00:36 1,5 C 88 % 1009,6 hPa 0,0 l/m 25,7 km/h (4 Bft) NO 44 -0,3 C -9,9 C
18.01.2019 00:35 1,5 C 88 % 1009,7 hPa 0,0 l/m 25,7 km/h (4 Bft) NO 44 -0,3 C -9,9 C
18.01.2019 00:34 1,6 C 88 % 1009,5 hPa 0,0 l/m 40,2 km/h (6 Bft) NO 44 -0,2 C -13,6 C
18.01.2019 00:33 1,7 C 87 % 1009,7 hPa 0,0 l/m 25,7 km/h (4 Bft) NO 44 -0,2 C -9,7 C
18.01.2019 00:32 1,7 C 87 % 1009,7 hPa 0,0 l/m 28,9 km/h (5 Bft) NO 44 -0,2 C -10,7 C
18.01.2019 00:31 1,8 C 87 % 1009,6 hPa 0,0 l/m 27,4 km/h (4 Bft) NO 44 -0,1 C -10,1 C
18.01.2019 00:30 1,9 C 85 % 1009,5 hPa 0,0 l/m 33,7 km/h (5 Bft) NO 44 -0,3 C -11,7 C
18.01.2019 00:29 1,9 C 85 % 1009,8 hPa 0,0 l/m 48,3 km/h (6 Bft) NO 44 -0,3 C -14,5 C
18.01.2019 00:28 1,9 C 85 % 1009,7 hPa 0,0 l/m 20,9 km/h (4 Bft) NO 44 -0,3 C -7,6 C
18.01.2019 00:27 2,0 C 85 % 1009,8 hPa 0,0 l/m 28,9 km/h (5 Bft) NO 44 -0,3 C -10,3 C
18.01.2019 00:26 2,0 C 85 % 1009,7 hPa 0,0 l/m 32,2 km/h (5 Bft) NO 44 -0,3 C -11,2 C
18.01.2019 00:24 1,9 C 85 % 1009,6 hPa 0,0 l/m 33,7 km/h (5 Bft) NO 44 -0,3 C -11,7 C
18.01.2019 00:23 1,9 C 85 % 1009,8 hPa 0,0 l/m 25,7 km/h (4 Bft) NO 44 -0,3 C -9,4 C
18.01.2019 00:22 1,9 C 85 % 1009,7 hPa 0,0 l/m 30,6 km/h (5 Bft) NO 44 -0,3 C -10,9 C
18.01.2019 00:21 1,9 C 85 % 1009,7 hPa 0,0 l/m 30,6 km/h (5 Bft) NO 44 -0,3 C -10,9 C
18.01.2019 00:20 1,9 C 85 % 1009,7 hPa 0,0 l/m 32,2 km/h (5 Bft) NO 44 -0,3 C -11,3 C
18.01.2019 00:19 1,9 C 85 % 1009,7 hPa 0,0 l/m 24,1 km/h (4 Bft) NO 44 -0,3 C -8,8 C
18.01.2019 00:18 2,0 C 84 % 1009,7 hPa 0,0 l/m 30,6 km/h (5 Bft) NO 44 -0,4 C -10,8 C
18.01.2019 00:17 2,0 C 84 % 1009,6 hPa 0,0 l/m 19,3 km/h (3 Bft) NO 44 -0,4 C -6,7 C
18.01.2019 00:16 2,0 C 84 % 1009,7 hPa 0,0 l/m 17,8 km/h (3 Bft) NO 44 -0,4 C -6,0 C
18.01.2019 00:15 2,0 C 84 % 1009,6 hPa 0,0 l/m 19,3 km/h (3 Bft) NO 44 -0,4 C -6,7 C
18.01.2019 00:14 2,0 C 84 % 1009,7 hPa 0,0 l/m 27,4 km/h (4 Bft) NO 44 -0,4 C -9,8 C
18.01.2019 00:13 2,0 C 84 % 1009,6 hPa 0,0 l/m 35,4 km/h (5 Bft) NO 44 -0,4 C -12,0 C
18.01.2019 00:12 2,0 C 84 % 1009,5 hPa 0,0 l/m 22,6 km/h (4 Bft) NO 44 -0,4 C -8,1 C
18.01.2019 00:11 2,1 C 84 % 1009,6 hPa 0,0 l/m 25,7 km/h (4 Bft) NO 44 -0,3 C -9,1 C
18.01.2019 00:10 2,1 C 84 % 1009,6 hPa 0,0 l/m 19,3 km/h (3 Bft) NO 44 -0,3 C -6,6 C
18.01.2019 00:09 2,1 C 84 % 1009,6 hPa 0,0 l/m 28,9 km/h (5 Bft) NO 44 -0,3 C -10,1 C
18.01.2019 00:08 2,2 C 84 % 1009,6 hPa 0,0 l/m 32,2 km/h (5 Bft) NO 44 -0,2 C -10,9 C
18.01.2019 00:07 2,2 C 83 % 1009,5 hPa 0,0 l/m 32,2 km/h (5 Bft) NO 44 -0,4 C -10,9 C
18.01.2019 00:06 2,2 C 84 % 1009,6 hPa 0,0 l/m 30,6 km/h (5 Bft) NO 44 -0,2 C -10,5 C
18.01.2019 00:05 2,1 C 84 % 1009,6 hPa 0,0 l/m 38,7 km/h (5 Bft) NO 44 -0,3 C -12,6 C
18.01.2019 00:04 2,2 C 84 % 1009,5 hPa 0,0 l/m 17,8 km/h (3 Bft) NO 44 -0,2 C -5,8 C
18.01.2019 00:03 2,2 C 84 % 1009,6 hPa 0,0 l/m 32,2 km/h (5 Bft) NO 44 -0,2 C -10,9 C
18.01.2019 00:01 2,2 C 84 % 1009,5 hPa 0,0 l/m 37,0 km/h (5 Bft) NO 44 -0,2 C -12,1 C
18.01.2019 00:00 2,2 C 84 % 1009,6 hPa 0,0 l/m 41,9 km/h (6 Bft) NO 44 -0,2 C -13,0 C
_ Min-Zeit 08:05 00:07 00:01 - 06:06 - - 05:49 07:58
Minimum _ -2,1 C 83 % 1009,5 hPa - 3,1 km/h (1 Bft) - - -3,5 C -20,1 C
_ Max-Zeit 00:00 07:47 09:01 00:00 00:29 - - 00:31 05:11
Maximum _ 2,2 C 95 % 1015,7 hPa 0,0 l/m 48,3 km/h
NO (6 Bft)
- - -0,1 C -0,6 C
Durchschnitt _ -0,3 C 90 % 1011,7 hPa #0,0 l/m 24,7 km/h (4 Bft) NO - -1,8 C -11,5 C